sensor_id;sensor_type;location;lat;lon;timestamp;P1;durP1;ratioP1;P2;durP2;ratioP2
52186;SDS011;38161;53.020;6.598;2022-12-18T00:01:17;98.27;;;32.47;;
52186;SDS011;38161;53.020;6.598;2022-12-18T00:03:45;97.73;;;32.97;;
52186;SDS011;38161;53.020;6.598;2022-12-18T00:06:11;94.55;;;31.58;;
52186;SDS011;38161;53.020;6.598;2022-12-18T00:08:38;93.97;;;31.37;;
52186;SDS011;38161;53.020;6.598;2022-12-18T00:11:08;96.70;;;31.85;;
52186;SDS011;38161;53.020;6.598;2022-12-18T00:13:36;89.53;;;31.53;;
52186;SDS011;38161;53.020;6.598;2022-12-18T00:16:09;91.97;;;31.35;;
52186;SDS011;38161;53.020;6.598;2022-12-18T00:18:36;103.40;;;33.97;;
52186;SDS011;38161;53.020;6.598;2022-12-18T00:21:03;99.47;;;32.63;;
52186;SDS011;38161;53.020;6.598;2022-12-18T00:23:31;86.40;;;31.83;;
52186;SDS011;38161;53.020;6.598;2022-12-18T00:26:01;98.03;;;33.10;;
52186;SDS011;38161;53.020;6.598;2022-12-18T00:28:28;100.57;;;34.33;;
52186;SDS011;38161;53.020;6.598;2022-12-18T00:31:04;95.10;;;31.27;;
52186;SDS011;38161;53.020;6.598;2022-12-18T00:36:04;105.73;;;34.87;;
52186;SDS011;38161;53.020;6.598;2022-12-18T00:38:51;100.63;;;34.17;;
52186;SDS011;38161;53.020;6.598;2022-12-18T00:41:19;95.50;;;32.63;;
52186;SDS011;38161;53.020;6.598;2022-12-18T00:44:04;101.73;;;33.10;;
52186;SDS011;38161;53.020;6.598;2022-12-18T00:46:31;104.50;;;33.17;;
52186;SDS011;38161;53.020;6.598;2022-12-18T00:48:57;107.53;;;33.25;;
52186;SDS011;38161;53.020;6.598;2022-12-18T00:51:23;103.70;;;33.20;;
52186;SDS011;38161;53.020;6.598;2022-12-18T00:53:49;109.10;;;33.90;;
52186;SDS011;38161;53.020;6.598;2022-12-18T00:56:15;101.82;;;34.05;;
52186;SDS011;38161;53.020;6.598;2022-12-18T00:58:41;88.30;;;30.37;;
52186;SDS011;38161;53.020;6.598;2022-12-18T01:01:07;104.77;;;35.40;;
52186;SDS011;38161;53.020;6.598;2022-12-18T01:03:33;96.18;;;32.47;;
52186;SDS011;38161;53.020;6.598;2022-12-18T01:05:59;97.63;;;32.10;;
52186;SDS011;38161;53.020;6.598;2022-12-18T01:08:24;88.20;;;30.27;;
52186;SDS011;38161;53.020;6.598;2022-12-18T01:10:50;94.17;;;31.13;;
52186;SDS011;38161;53.020;6.598;2022-12-18T01:13:16;100.57;;;32.17;;
52186;SDS011;38161;53.020;6.598;2022-12-18T01:15:51;91.17;;;31.13;;
52186;SDS011;38161;53.020;6.598;2022-12-18T01:18:16;92.43;;;32.17;;
52186;SDS011;38161;53.020;6.598;2022-12-18T01:20:42;93.33;;;31.20;;
52186;SDS011;38161;53.020;6.598;2022-12-18T01:23:08;103.00;;;32.90;;
52186;SDS011;38161;53.020;6.598;2022-12-18T01:25:35;104.20;;;31.83;;
52186;SDS011;38161;53.020;6.598;2022-12-18T01:28:01;97.27;;;32.30;;
52186;SDS011;38161;53.020;6.598;2022-12-18T01:30:27;90.63;;;30.83;;
52186;SDS011;38161;53.020;6.598;2022-12-18T01:32:53;113.18;;;34.60;;
52186;SDS011;38161;53.020;6.598;2022-12-18T01:35:19;100.23;;;32.30;;
52186;SDS011;38161;53.020;6.598;2022-12-18T01:37:45;101.95;;;34.55;;
52186;SDS011;38161;53.020;6.598;2022-12-18T01:40:11;98.28;;;33.38;;
52186;SDS011;38161;53.020;6.598;2022-12-18T01:42:36;106.70;;;33.97;;
52186;SDS011;38161;53.020;6.598;2022-12-18T01:47:47;96.73;;;33.23;;
52186;SDS011;38161;53.020;6.598;2022-12-18T01:52:43;114.20;;;35.20;;
52186;SDS011;38161;53.020;6.598;2022-12-18T01:55:13;106.40;;;32.77;;
52186;SDS011;38161;53.020;6.598;2022-12-18T01:57:41;94.40;;;31.53;;
52186;SDS011;38161;53.020;6.598;2022-12-18T02:00:11;94.25;;;33.58;;
52186;SDS011;38161;53.020;6.598;2022-12-18T02:02:40;100.13;;;33.80;;
52186;SDS011;38161;53.020;6.598;2022-12-18T02:05:08;103.17;;;33.07;;
52186;SDS011;38161;53.020;6.598;2022-12-18T02:07:37;103.70;;;34.90;;
52186;SDS011;38161;53.020;6.598;2022-12-18T02:10:26;104.80;;;33.20;;
52186;SDS011;38161;53.020;6.598;2022-12-18T02:13:20;104.47;;;34.30;;
52186;SDS011;38161;53.020;6.598;2022-12-18T02:18:33;104.87;;;34.17;;
52186;SDS011;38161;53.020;6.598;2022-12-18T02:21:16;102.73;;;35.73;;
52186;SDS011;38161;53.020;6.598;2022-12-18T02:23:56;111.93;;;35.40;;
52186;SDS011;38161;53.020;6.598;2022-12-18T02:26:33;106.47;;;35.47;;
52186;SDS011;38161;53.020;6.598;2022-12-18T02:29:08;103.60;;;36.43;;
52186;SDS011;38161;53.020;6.598;2022-12-18T02:31:48;115.47;;;38.53;;
52186;SDS011;38161;53.020;6.598;2022-12-18T02:34:17;105.03;;;35.67;;
52186;SDS011;38161;53.020;6.598;2022-12-18T02:36:45;107.83;;;35.40;;
52186;SDS011;38161;53.020;6.598;2022-12-18T02:39:13;107.20;;;35.53;;
52186;SDS011;38161;53.020;6.598;2022-12-18T02:41:40;107.10;;;35.93;;
52186;SDS011;38161;53.020;6.598;2022-12-18T02:44:08;103.10;;;34.60;;
52186;SDS011;38161;53.020;6.598;2022-12-18T02:46:38;108.97;;;36.87;;
52186;SDS011;38161;53.020;6.598;2022-12-18T02:51:47;92.03;;;34.03;;
52186;SDS011;38161;53.020;6.598;2022-12-18T02:54:35;106.77;;;36.47;;
52186;SDS011;38161;53.020;6.598;2022-12-18T02:57:13;98.63;;;33.40;;
52186;SDS011;38161;53.020;6.598;2022-12-18T03:00:06;89.60;;;32.90;;
52186;SDS011;38161;53.020;6.598;2022-12-18T03:02:39;98.63;;;33.60;;
52186;SDS011;38161;53.020;6.598;2022-12-18T03:05:23;96.80;;;33.73;;
52186;SDS011;38161;53.020;6.598;2022-12-18T03:07:56;101.57;;;33.67;;
52186;SDS011;38161;53.020;6.598;2022-12-18T03:10:32;98.43;;;33.13;;
52186;SDS011;38161;53.020;6.598;2022-12-18T03:13:04;103.40;;;34.03;;
52186;SDS011;38161;53.020;6.598;2022-12-18T03:15:38;103.73;;;32.90;;
52186;SDS011;38161;53.020;6.598;2022-12-18T03:18:13;92.03;;;31.27;;
52186;SDS011;38161;53.020;6.598;2022-12-18T03:20:44;100.17;;;32.33;;
52186;SDS011;38161;53.020;6.598;2022-12-18T03:23:14;97.10;;;33.03;;
52186;SDS011;38161;53.020;6.598;2022-12-18T03:25:44;95.80;;;32.27;;
52186;SDS011;38161;53.020;6.598;2022-12-18T03:28:12;90.67;;;32.10;;
52186;SDS011;38161;53.020;6.598;2022-12-18T03:30:41;101.53;;;33.40;;
52186;SDS011;38161;53.020;6.598;2022-12-18T03:33:19;99.00;;;31.90;;
52186;SDS011;38161;53.020;6.598;2022-12-18T03:35:51;85.60;;;32.43;;
52186;SDS011;38161;53.020;6.598;2022-12-18T03:38:17;95.23;;;31.67;;
52186;SDS011;38161;53.020;6.598;2022-12-18T03:41:29;93.05;;;32.42;;
52186;SDS011;38161;53.020;6.598;2022-12-18T03:43:42;88.87;;;30.57;;
52186;SDS011;38161;53.020;6.598;2022-12-18T03:46:25;94.07;;;32.70;;
52186;SDS011;38161;53.020;6.598;2022-12-18T03:49:03;88.50;;;32.07;;
52186;SDS011;38161;53.020;6.598;2022-12-18T03:54:35;93.10;;;31.90;;
52186;SDS011;38161;53.020;6.598;2022-12-18T03:57:09;91.77;;;31.90;;
52186;SDS011;38161;53.020;6.598;2022-12-18T03:59:40;81.93;;;30.47;;
52186;SDS011;38161;53.020;6.598;2022-12-18T04:02:06;95.07;;;32.30;;
52186;SDS011;38161;53.020;6.598;2022-12-18T04:04:34;85.57;;;32.27;;
52186;SDS011;38161;53.020;6.598;2022-12-18T04:07:03;106.07;;;31.03;;
52186;SDS011;38161;53.020;6.598;2022-12-18T04:11:56;93.70;;;32.22;;
52186;SDS011;38161;53.020;6.598;2022-12-18T04:14:22;95.23;;;34.37;;
52186;SDS011;38161;53.020;6.598;2022-12-18T04:16:48;92.40;;;32.60;;
52186;SDS011;38161;53.020;6.598;2022-12-18T04:19:14;95.20;;;32.20;;
52186;SDS011;38161;53.020;6.598;2022-12-18T04:21:39;99.10;;;33.88;;
52186;SDS011;38161;53.020;6.598;2022-12-18T04:24:05;104.33;;;33.43;;
52186;SDS011;38161;53.020;6.598;2022-12-18T04:26:31;90.78;;;31.00;;
52186;SDS011;38161;53.020;6.598;2022-12-18T04:28:57;79.93;;;31.30;;
52186;SDS011;38161;53.020;6.598;2022-12-18T04:31:22;87.93;;;30.67;;
52186;SDS011;38161;53.020;6.598;2022-12-18T04:33:48;89.70;;;31.83;;
52186;SDS011;38161;53.020;6.598;2022-12-18T04:36:14;93.97;;;32.43;;
52186;SDS011;38161;53.020;6.598;2022-12-18T04:38:39;91.10;;;32.33;;
52186;SDS011;38161;53.020;6.598;2022-12-18T04:41:05;80.73;;;29.93;;
52186;SDS011;38161;53.020;6.598;2022-12-18T04:43:31;89.00;;;30.17;;
52186;SDS011;38161;53.020;6.598;2022-12-18T04:48:41;79.93;;;30.00;;
52186;SDS011;38161;53.020;6.598;2022-12-18T04:51:07;78.70;;;29.47;;
52186;SDS011;38161;53.020;6.598;2022-12-18T04:53:33;86.57;;;30.17;;
52186;SDS011;38161;53.020;6.598;2022-12-18T04:56:08;96.30;;;30.33;;
52186;SDS011;38161;53.020;6.598;2022-12-18T04:58:36;72.90;;;27.40;;
52186;SDS011;38161;53.020;6.598;2022-12-18T05:01:04;65.13;;;27.73;;
52186;SDS011;38161;53.020;6.598;2022-12-18T05:03:29;71.60;;;27.20;;
52186;SDS011;38161;53.020;6.598;2022-12-18T05:05:55;70.85;;;27.40;;
52186;SDS011;38161;53.020;6.598;2022-12-18T05:08:21;71.40;;;25.87;;
52186;SDS011;38161;53.020;6.598;2022-12-18T05:10:47;71.88;;;27.83;;
52186;SDS011;38161;53.020;6.598;2022-12-18T05:13:13;66.67;;;25.50;;
52186;SDS011;38161;53.020;6.598;2022-12-18T05:15:38;66.13;;;26.23;;
52186;SDS011;38161;53.020;6.598;2022-12-18T05:18:04;66.30;;;26.27;;
52186;SDS011;38161;53.020;6.598;2022-12-18T05:20:30;60.60;;;25.83;;
52186;SDS011;38161;53.020;6.598;2022-12-18T05:22:56;64.25;;;26.85;;
52186;SDS011;38161;53.020;6.598;2022-12-18T05:25:24;60.13;;;25.40;;
52186;SDS011;38161;53.020;6.598;2022-12-18T05:27:50;59.67;;;26.07;;
52186;SDS011;38161;53.020;6.598;2022-12-18T05:30:16;62.50;;;24.50;;
52186;SDS011;38161;53.020;6.598;2022-12-18T05:32:41;60.50;;;25.13;;
52186;SDS011;38161;53.020;6.598;2022-12-18T05:35:08;61.38;;;24.92;;
52186;SDS011;38161;53.020;6.598;2022-12-18T05:37:35;62.27;;;24.70;;
52186;SDS011;38161;53.020;6.598;2022-12-18T05:40:01;57.08;;;24.15;;
52186;SDS011;38161;53.020;6.598;2022-12-18T05:42:28;55.17;;;23.10;;
52186;SDS011;38161;53.020;6.598;2022-12-18T05:44:53;58.10;;;24.93;;
52186;SDS011;38161;53.020;6.598;2022-12-18T05:47:19;61.77;;;24.00;;
52186;SDS011;38161;53.020;6.598;2022-12-18T05:49:45;58.20;;;23.43;;
52186;SDS011;38161;53.020;6.598;2022-12-18T05:52:10;57.37;;;22.87;;
52186;SDS011;38161;53.020;6.598;2022-12-18T05:54:36;58.83;;;23.73;;
52186;SDS011;38161;53.020;6.598;2022-12-18T05:57:02;60.63;;;24.87;;
52186;SDS011;38161;53.020;6.598;2022-12-18T05:59:28;51.67;;;23.43;;
52186;SDS011;38161;53.020;6.598;2022-12-18T06:01:53;55.60;;;22.77;;
52186;SDS011;38161;53.020;6.598;2022-12-18T06:04:19;58.40;;;23.93;;
52186;SDS011;38161;53.020;6.598;2022-12-18T06:06:45;57.77;;;24.83;;
52186;SDS011;38161;53.020;6.598;2022-12-18T06:09:10;53.37;;;25.17;;
52186;SDS011;38161;53.020;6.598;2022-12-18T06:11:37;58.08;;;23.13;;
52186;SDS011;38161;53.020;6.598;2022-12-18T06:14:03;54.80;;;22.95;;
52186;SDS011;38161;53.020;6.598;2022-12-18T06:16:30;47.37;;;21.90;;
52186;SDS011;38161;53.020;6.598;2022-12-18T06:18:57;52.35;;;22.25;;
52186;SDS011;38161;53.020;6.598;2022-12-18T06:21:23;54.77;;;22.67;;
52186;SDS011;38161;53.020;6.598;2022-12-18T06:23:49;47.93;;;21.53;;
52186;SDS011;38161;53.020;6.598;2022-12-18T06:26:15;56.20;;;22.00;;
52186;SDS011;38161;53.020;6.598;2022-12-18T06:28:41;49.50;;;21.85;;
52186;SDS011;38161;53.020;6.598;2022-12-18T06:31:07;45.85;;;20.67;;
52186;SDS011;38161;53.020;6.598;2022-12-18T06:33:33;53.08;;;21.67;;
52186;SDS011;38161;53.020;6.598;2022-12-18T06:36:04;51.42;;;22.75;;
52186;SDS011;38161;53.020;6.598;2022-12-18T06:38:38;51.73;;;20.10;;
52186;SDS011;38161;53.020;6.598;2022-12-18T06:41:06;45.43;;;20.73;;
52186;SDS011;38161;53.020;6.598;2022-12-18T06:43:33;53.30;;;21.07;;
52186;SDS011;38161;53.020;6.598;2022-12-18T06:46:00;45.90;;;21.17;;
52186;SDS011;38161;53.020;6.598;2022-12-18T06:48:26;51.00;;;21.80;;
52186;SDS011;38161;53.020;6.598;2022-12-18T06:50:52;45.50;;;20.33;;
52186;SDS011;38161;53.020;6.598;2022-12-18T06:53:18;51.40;;;22.63;;
52186;SDS011;38161;53.020;6.598;2022-12-18T06:55:43;49.17;;;20.47;;
52186;SDS011;38161;53.020;6.598;2022-12-18T06:58:09;50.93;;;22.43;;
52186;SDS011;38161;53.020;6.598;2022-12-18T07:00:35;49.13;;;20.57;;
52186;SDS011;38161;53.020;6.598;2022-12-18T07:03:01;55.50;;;21.23;;
52186;SDS011;38161;53.020;6.598;2022-12-18T07:05:26;49.30;;;21.57;;
52186;SDS011;38161;53.020;6.598;2022-12-18T07:07:52;46.37;;;22.10;;
52186;SDS011;38161;53.020;6.598;2022-12-18T07:10:18;46.60;;;20.13;;
52186;SDS011;38161;53.020;6.598;2022-12-18T07:12:43;47.13;;;20.90;;
52186;SDS011;38161;53.020;6.598;2022-12-18T07:15:09;50.00;;;21.93;;
52186;SDS011;38161;53.020;6.598;2022-12-18T07:17:35;46.60;;;19.48;;
52186;SDS011;38161;53.020;6.598;2022-12-18T07:20:01;51.63;;;21.57;;
52186;SDS011;38161;53.020;6.598;2022-12-18T07:22:27;47.20;;;20.58;;
52186;SDS011;38161;53.020;6.598;2022-12-18T07:24:52;49.70;;;21.43;;
52186;SDS011;38161;53.020;6.598;2022-12-18T07:27:18;52.45;;;21.92;;
52186;SDS011;38161;53.020;6.598;2022-12-18T07:29:44;41.10;;;19.73;;
52186;SDS011;38161;53.020;6.598;2022-12-18T07:32:10;41.33;;;18.40;;
52186;SDS011;38161;53.020;6.598;2022-12-18T07:34:35;45.13;;;19.83;;
52186;SDS011;38161;53.020;6.598;2022-12-18T07:37:01;46.90;;;19.42;;
52186;SDS011;38161;53.020;6.598;2022-12-18T07:39:27;41.30;;;19.40;;
52186;SDS011;38161;53.020;6.598;2022-12-18T07:41:52;47.40;;;19.40;;
52186;SDS011;38161;53.020;6.598;2022-12-18T07:44:57;46.30;;;21.00;;
52186;SDS011;38161;53.020;6.598;2022-12-18T07:47:27;44.17;;;19.17;;
52186;SDS011;38161;53.020;6.598;2022-12-18T07:49:53;42.90;;;19.67;;
52186;SDS011;38161;53.020;6.598;2022-12-18T07:52:19;45.08;;;20.17;;
52186;SDS011;38161;53.020;6.598;2022-12-18T07:54:45;40.40;;;19.60;;
52186;SDS011;38161;53.020;6.598;2022-12-18T07:57:11;44.67;;;19.60;;
52186;SDS011;38161;53.020;6.598;2022-12-18T07:59:36;43.20;;;21.17;;
52186;SDS011;38161;53.020;6.598;2022-12-18T08:02:02;46.63;;;19.27;;
52186;SDS011;38161;53.020;6.598;2022-12-18T08:04:28;43.57;;;19.80;;
52186;SDS011;38161;53.020;6.598;2022-12-18T08:06:56;37.10;;;18.53;;
52186;SDS011;38161;53.020;6.598;2022-12-18T08:09:22;46.73;;;21.33;;
52186;SDS011;38161;53.020;6.598;2022-12-18T08:11:47;40.33;;;18.47;;
52186;SDS011;38161;53.020;6.598;2022-12-18T08:14:13;40.50;;;20.37;;
52186;SDS011;38161;53.020;6.598;2022-12-18T08:16:39;47.13;;;21.10;;
52186;SDS011;38161;53.020;6.598;2022-12-18T08:19:05;41.75;;;20.33;;
52186;SDS011;38161;53.020;6.598;2022-12-18T08:21:31;44.30;;;20.73;;
52186;SDS011;38161;53.020;6.598;2022-12-18T08:23:57;42.33;;;19.95;;
52186;SDS011;38161;53.020;6.598;2022-12-18T08:26:25;43.30;;;20.00;;
52186;SDS011;38161;53.020;6.598;2022-12-18T08:28:53;39.17;;;18.80;;
52186;SDS011;38161;53.020;6.598;2022-12-18T08:31:20;43.13;;;19.63;;
52186;SDS011;38161;53.020;6.598;2022-12-18T08:33:48;38.13;;;17.80;;
52186;SDS011;38161;53.020;6.598;2022-12-18T08:36:15;39.90;;;18.30;;
52186;SDS011;38161;53.020;6.598;2022-12-18T08:38:41;41.85;;;19.98;;
52186;SDS011;38161;53.020;6.598;2022-12-18T08:41:11;43.50;;;18.60;;
52186;SDS011;38161;53.020;6.598;2022-12-18T08:43:38;37.53;;;18.80;;
52186;SDS011;38161;53.020;6.598;2022-12-18T08:46:22;39.97;;;18.43;;
52186;SDS011;38161;53.020;6.598;2022-12-18T08:48:50;41.17;;;19.47;;
52186;SDS011;38161;53.020;6.598;2022-12-18T08:51:16;41.40;;;18.87;;
52186;SDS011;38161;53.020;6.598;2022-12-18T08:53:43;38.35;;;17.98;;
52186;SDS011;38161;53.020;6.598;2022-12-18T08:56:09;43.33;;;18.63;;
52186;SDS011;38161;53.020;6.598;2022-12-18T09:01:05;34.07;;;17.17;;
52186;SDS011;38161;53.020;6.598;2022-12-18T09:03:34;36.83;;;18.20;;
52186;SDS011;38161;53.020;6.598;2022-12-18T09:06:00;42.65;;;19.13;;
52186;SDS011;38161;53.020;6.598;2022-12-18T09:08:27;34.58;;;17.55;;
52186;SDS011;38161;53.020;6.598;2022-12-18T09:10:53;38.80;;;19.27;;
52186;SDS011;38161;53.020;6.598;2022-12-18T09:13:19;34.53;;;16.90;;
52186;SDS011;38161;53.020;6.598;2022-12-18T09:15:49;36.78;;;17.92;;
52186;SDS011;38161;53.020;6.598;2022-12-18T09:18:19;38.83;;;16.87;;
52186;SDS011;38161;53.020;6.598;2022-12-18T09:20:47;37.00;;;16.33;;
52186;SDS011;38161;53.020;6.598;2022-12-18T09:23:13;34.00;;;16.70;;
52186;SDS011;38161;53.020;6.598;2022-12-18T09:25:39;36.30;;;16.48;;
52186;SDS011;38161;53.020;6.598;2022-12-18T09:28:06;31.80;;;15.90;;
52186;SDS011;38161;53.020;6.598;2022-12-18T09:30:39;35.67;;;16.47;;
52186;SDS011;38161;53.020;6.598;2022-12-18T09:33:06;30.57;;;15.87;;
52186;SDS011;38161;53.020;6.598;2022-12-18T09:35:32;34.20;;;17.25;;
52186;SDS011;38161;53.020;6.598;2022-12-18T09:38:01;33.23;;;16.50;;
52186;SDS011;38161;53.020;6.598;2022-12-18T09:40:28;35.53;;;16.13;;
52186;SDS011;38161;53.020;6.598;2022-12-18T09:43:02;31.57;;;14.80;;
52186;SDS011;38161;53.020;6.598;2022-12-18T09:45:37;30.73;;;14.13;;
52186;SDS011;38161;53.020;6.598;2022-12-18T09:48:09;24.90;;;13.85;;
52186;SDS011;38161;53.020;6.598;2022-12-18T09:50:44;27.13;;;13.55;;
52186;SDS011;38161;53.020;6.598;2022-12-18T09:53:13;28.57;;;15.07;;
52186;SDS011;38161;53.020;6.598;2022-12-18T09:55:45;26.00;;;13.57;;
52186;SDS011;38161;53.020;6.598;2022-12-18T09:58:20;26.03;;;13.77;;
52186;SDS011;38161;53.020;6.598;2022-12-18T10:00:52;28.30;;;13.13;;
52186;SDS011;38161;53.020;6.598;2022-12-18T10:03:21;26.77;;;13.97;;
52186;SDS011;38161;53.020;6.598;2022-12-18T10:06:05;29.02;;;14.13;;
52186;SDS011;38161;53.020;6.598;2022-12-18T10:20:01;20.47;;;10.97;;
52186;SDS011;38161;53.020;6.598;2022-12-18T10:22:50;20.47;;;10.17;;
52186;SDS011;38161;53.020;6.598;2022-12-18T10:25:53;20.63;;;9.27;;
52186;SDS011;38161;53.020;6.598;2022-12-18T10:28:23;17.85;;;9.93;;
52186;SDS011;38161;53.020;6.598;2022-12-18T10:30:50;18.27;;;9.87;;
52186;SDS011;38161;53.020;6.598;2022-12-18T10:33:17;16.57;;;9.40;;
52186;SDS011;38161;53.020;6.598;2022-12-18T10:35:48;17.17;;;9.10;;
52186;SDS011;38161;53.020;6.598;2022-12-18T10:40:59;15.40;;;7.97;;
52186;SDS011;38161;53.020;6.598;2022-12-18T10:44:10;16.00;;;8.10;;
52186;SDS011;38161;53.020;6.598;2022-12-18T10:46:36;16.13;;;8.13;;
52186;SDS011;38161;53.020;6.598;2022-12-18T10:49:02;13.77;;;7.25;;
52186;SDS011;38161;53.020;6.598;2022-12-18T10:51:29;13.02;;;7.10;;
52186;SDS011;38161;53.020;6.598;2022-12-18T10:54:05;12.73;;;7.20;;
52186;SDS011;38161;53.020;6.598;2022-12-18T10:56:37;14.77;;;8.00;;
52186;SDS011;38161;53.020;6.598;2022-12-18T10:59:04;15.40;;;8.30;;
52186;SDS011;38161;53.020;6.598;2022-12-18T11:04:40;16.17;;;8.57;;
52186;SDS011;38161;53.020;6.598;2022-12-18T11:07:14;16.00;;;8.37;;
52186;SDS011;38161;53.020;6.598;2022-12-18T11:09:40;19.17;;;9.40;;
52186;SDS011;38161;53.020;6.598;2022-12-18T11:12:15;17.77;;;9.47;;
52186;SDS011;38161;53.020;6.598;2022-12-18T11:14:49;17.57;;;9.17;;
52186;SDS011;38161;53.020;6.598;2022-12-18T11:17:18;20.00;;;9.77;;
52186;SDS011;38161;53.020;6.598;2022-12-18T11:19:44;18.43;;;9.20;;
52186;SDS011;38161;53.020;6.598;2022-12-18T11:22:27;15.67;;;8.50;;
52186;SDS011;38161;53.020;6.598;2022-12-18T11:27:37;16.63;;;9.10;;
52186;SDS011;38161;53.020;6.598;2022-12-18T11:32:48;14.40;;;8.87;;
52186;SDS011;38161;53.020;6.598;2022-12-18T11:35:25;14.23;;;8.10;;
52186;SDS011;38161;53.020;6.598;2022-12-18T11:38:00;16.43;;;9.23;;
52186;SDS011;38161;53.020;6.598;2022-12-18T11:40:38;17.73;;;8.53;;
52186;SDS011;38161;53.020;6.598;2022-12-18T11:43:11;17.67;;;8.60;;
52186;SDS011;38161;53.020;6.598;2022-12-18T11:45:42;16.07;;;9.03;;
52186;SDS011;38161;53.020;6.598;2022-12-18T11:48:18;16.58;;;8.85;;
52186;SDS011;38161;53.020;6.598;2022-12-18T11:50:58;19.27;;;8.57;;
52186;SDS011;38161;53.020;6.598;2022-12-18T11:53:26;15.53;;;8.47;;
52186;SDS011;38161;53.020;6.598;2022-12-18T11:58:57;17.60;;;8.47;;
52186;SDS011;38161;53.020;6.598;2022-12-18T12:07:02;15.57;;;8.63;;
52186;SDS011;38161;53.020;6.598;2022-12-18T12:09:55;15.53;;;8.23;;
52186;SDS011;38161;53.020;6.598;2022-12-18T12:18:00;17.93;;;8.87;;
52186;SDS011;38161;53.020;6.598;2022-12-18T12:20:49;16.77;;;8.50;;
52186;SDS011;38161;53.020;6.598;2022-12-18T12:26:03;19.50;;;9.63;;
52186;SDS011;38161;53.020;6.598;2022-12-18T12:33:31;17.20;;;9.07;;
52186;SDS011;38161;53.020;6.598;2022-12-18T12:38:55;18.13;;;9.03;;
52186;SDS011;38161;53.020;6.598;2022-12-18T12:41:25;17.83;;;8.47;;
52186;SDS011;38161;53.020;6.598;2022-12-18T12:44:19;14.93;;;8.20;;
52186;SDS011;38161;53.020;6.598;2022-12-18T12:46:50;12.98;;;7.63;;
52186;SDS011;38161;53.020;6.598;2022-12-18T12:49:20;19.93;;;7.50;;
52186;SDS011;38161;53.020;6.598;2022-12-18T12:51:57;13.10;;;7.50;;
52186;SDS011;38161;53.020;6.598;2022-12-18T12:54:24;14.37;;;8.03;;
52186;SDS011;38161;53.020;6.598;2022-12-18T13:00:16;12.23;;;7.27;;
52186;SDS011;38161;53.020;6.598;2022-12-18T13:10:24;14.50;;;7.10;;
52186;SDS011;38161;53.020;6.598;2022-12-18T13:15:33;12.47;;;6.90;;
52186;SDS011;38161;53.020;6.598;2022-12-18T13:25:50;16.20;;;6.67;;
52186;SDS011;38161;53.020;6.598;2022-12-18T13:33:39;12.57;;;6.43;;
52186;SDS011;38161;53.020;6.598;2022-12-18T13:38:37;11.57;;;6.57;;
52186;SDS011;38161;53.020;6.598;2022-12-18T13:46:01;11.77;;;6.20;;
52186;SDS011;38161;53.020;6.598;2022-12-18T13:48:29;12.87;;;6.73;;
52186;SDS011;38161;53.020;6.598;2022-12-18T13:51:05;12.93;;;6.93;;
52186;SDS011;38161;53.020;6.598;2022-12-18T13:53:34;12.67;;;6.57;;
52186;SDS011;38161;53.020;6.598;2022-12-18T13:56:08;12.87;;;6.77;;
52186;SDS011;38161;53.020;6.598;2022-12-18T13:58:34;11.77;;;6.63;;
52186;SDS011;38161;53.020;6.598;2022-12-18T14:00:59;14.27;;;6.70;;
52186;SDS011;38161;53.020;6.598;2022-12-18T14:03:27;13.10;;;6.33;;
52186;SDS011;38161;53.020;6.598;2022-12-18T14:06:02;12.53;;;6.47;;
52186;SDS011;38161;53.020;6.598;2022-12-18T14:08:35;13.10;;;6.80;;
52186;SDS011;38161;53.020;6.598;2022-12-18T14:11:06;11.37;;;5.67;;
52186;SDS011;38161;53.020;6.598;2022-12-18T14:13:36;10.85;;;6.10;;
52186;SDS011;38161;53.020;6.598;2022-12-18T14:16:06;12.73;;;6.33;;
52186;SDS011;38161;53.020;6.598;2022-12-18T14:18:38;12.73;;;7.00;;
52186;SDS011;38161;53.020;6.598;2022-12-18T14:21:43;10.32;;;5.43;;
52186;SDS011;38161;53.020;6.598;2022-12-18T14:24:23;13.20;;;6.70;;
52186;SDS011;38161;53.020;6.598;2022-12-18T14:26:49;10.57;;;5.77;;
52186;SDS011;38161;53.020;6.598;2022-12-18T14:29:28;13.40;;;6.10;;
52186;SDS011;38161;53.020;6.598;2022-12-18T14:32:09;13.07;;;6.90;;
52186;SDS011;38161;53.020;6.598;2022-12-18T14:34:39;13.00;;;6.33;;
52186;SDS011;38161;53.020;6.598;2022-12-18T14:37:05;14.15;;;6.55;;
52186;SDS011;38161;53.020;6.598;2022-12-18T14:39:34;13.67;;;6.50;;
52186;SDS011;38161;53.020;6.598;2022-12-18T14:41:59;13.63;;;6.60;;
52186;SDS011;38161;53.020;6.598;2022-12-18T14:44:25;12.67;;;6.57;;
52186;SDS011;38161;53.020;6.598;2022-12-18T14:46:51;13.10;;;6.93;;
52186;SDS011;38161;53.020;6.598;2022-12-18T14:49:35;13.00;;;6.90;;
52186;SDS011;38161;53.020;6.598;2022-12-18T14:52:03;14.50;;;7.23;;
52186;SDS011;38161;53.020;6.598;2022-12-18T14:54:30;14.17;;;7.50;;
52186;SDS011;38161;53.020;6.598;2022-12-18T14:59:29;12.27;;;6.80;;
52186;SDS011;38161;53.020;6.598;2022-12-18T15:01:59;11.80;;;7.10;;
52186;SDS011;38161;53.020;6.598;2022-12-18T15:04:43;15.00;;;7.50;;
52186;SDS011;38161;53.020;6.598;2022-12-18T15:09:39;14.83;;;7.63;;
52186;SDS011;38161;53.020;6.598;2022-12-18T15:12:20;13.50;;;6.93;;
52186;SDS011;38161;53.020;6.598;2022-12-18T15:14:51;13.70;;;7.20;;
52186;SDS011;38161;53.020;6.598;2022-12-18T15:17:18;14.60;;;7.37;;
52186;SDS011;38161;53.020;6.598;2022-12-18T15:19:48;15.50;;;7.60;;
52186;SDS011;38161;53.020;6.598;2022-12-18T15:22:18;14.53;;;8.10;;
52186;SDS011;38161;53.020;6.598;2022-12-18T15:24:46;14.80;;;8.13;;
52186;SDS011;38161;53.020;6.598;2022-12-18T15:27:26;14.95;;;8.25;;
52186;SDS011;38161;53.020;6.598;2022-12-18T15:32:39;16.87;;;8.07;;
52186;SDS011;38161;53.020;6.598;2022-12-18T15:37:39;14.00;;;8.00;;
52186;SDS011;38161;53.020;6.598;2022-12-18T15:40:05;16.38;;;7.95;;
52186;SDS011;38161;53.020;6.598;2022-12-18T15:42:33;15.50;;;8.43;;
52186;SDS011;38161;53.020;6.598;2022-12-18T15:45:17;17.27;;;8.77;;
52186;SDS011;38161;53.020;6.598;2022-12-18T15:47:43;17.10;;;9.00;;
52186;SDS011;38161;53.020;6.598;2022-12-18T15:50:09;16.67;;;8.93;;
52186;SDS011;38161;53.020;6.598;2022-12-18T15:52:45;16.98;;;8.95;;
52186;SDS011;38161;53.020;6.598;2022-12-18T15:55:13;16.23;;;9.13;;
52186;SDS011;38161;53.020;6.598;2022-12-18T15:58:00;17.40;;;9.13;;
52186;SDS011;38161;53.020;6.598;2022-12-18T16:00:25;18.53;;;10.10;;
52186;SDS011;38161;53.020;6.598;2022-12-18T16:02:52;16.20;;;8.48;;
52186;SDS011;38161;53.020;6.598;2022-12-18T16:05:18;19.70;;;9.73;;
52186;SDS011;38161;53.020;6.598;2022-12-18T16:07:45;17.80;;;9.27;;
52186;SDS011;38161;53.020;6.598;2022-12-18T16:10:11;16.60;;;9.02;;
52186;SDS011;38161;53.020;6.598;2022-12-18T16:12:37;20.40;;;9.75;;
52186;SDS011;38161;53.020;6.598;2022-12-18T16:15:03;18.35;;;9.65;;
52186;SDS011;38161;53.020;6.598;2022-12-18T16:19:55;18.30;;;10.00;;
52186;SDS011;38161;53.020;6.598;2022-12-18T16:22:23;16.57;;;9.50;;
52186;SDS011;38161;53.020;6.598;2022-12-18T16:24:51;17.73;;;8.77;;
52186;SDS011;38161;53.020;6.598;2022-12-18T16:27:17;16.97;;;9.60;;
52186;SDS011;38161;53.020;6.598;2022-12-18T16:29:44;17.23;;;9.52;;
52186;SDS011;38161;53.020;6.598;2022-12-18T16:32:14;17.10;;;9.40;;
52186;SDS011;38161;53.020;6.598;2022-12-18T16:34:42;20.23;;;10.47;;
52186;SDS011;38161;53.020;6.598;2022-12-18T16:37:09;17.63;;;10.02;;